South Attleboro, Massachusetts
Current Conditions -  °F | °C
As of 12:35 PM on Thursday 23 Oct 2014 (Local Time) from KSFZ Reporting Station
Overcast Overcast  
Wind Chill: 52°   Ceiling: 600
Heat Index: 52°   Visibility: 3mi
Dew Point: 45°   Wind: 16mph
Humidity: 76%   Direction: 10°N
Pressure: 29.6"   Gusts: 22mph
Location:  41.9304°N, 71.2954°W
Report Text: KSFZ 231635Z 01014G19KT 3SM OVC006 11/07 A2960 RMK AO1
Loading
Personal Weather Stations






























Interactive Weather Map
Tropical Storm Tracking
New forecast layout! Learn more

10-Day Weather Forecast

Advertisements
Track Severe Weather on mobile